Bangor International Airport Bangor US
ICAO: KBGR
IATA: BGR
Category: Large
Scheduled Services: Yes

Elevation: 192 ft
TransAlt. 18000 ft.

Airport Communications:
APP/DEP:118.925
ASOS:127.75
ATIS:127.75
CLNC DEL:135.9
GND:121.9
ARNG OPS:41.2
ANG OPS:31.1
RDO:122.2
TWR:120.7
UNICOM:122.95

KBGR Zoom In..

Runways:

(A) RW 15 length 11440 ft width 200 ft
ILS 109.50 / hdg 153

(B) RW 33 length 11440 ft width 200 ft
ILS 109.50 / hdg 333

Location; KBGR
Day. 29 / Time. 08.53 Zulu
* Altimeter: 29.97
* Temperature: 21° c. 69.8°f.
* Wind from: 190° Speed 10 kn with Gusts up to 18 kn.
Dewpoint: 18° c.
Visibility: 10 Statute Miles.
Clouds: Overcast 2800 ft.

KBGR 290853Z 19010G18KT 10SM OVC028 21/18 A2997 RMK AO2 SLP145 BINOVC T02110178 58006


Wind From 190°
Speed 10 kn.

 
 
jpsmedia worldairports.se 2020   terms of use